KGAF

Hutson Field Airport

Grafton, North Dakota, USA
METAR KGAF 240715Z AUTO 13008KT 10SM FEW075 FEW085 20/17 A2990 RMK AO2 PWINO
Observed Flight Rules
May-24 @ 07:15 UTC (23 minutes ago) Visual Flight Rules
Wind Visibility Clouds
130° at 8 knots 10 miles
  • Few at 7,500' AGL
  • Few at 8,500' AGL
Temperatures Readings
Current 20°C / 68°F
Dewpoint 17°C / 63°F
Humidity 83%
Altimeter 29.9" Hg
Pressure 1013 hPa
Elevation 252
METAR KGAF 240715Z AUTO 13008KT 10SM FEW075 FEW085 20/17 A2990 RMK AO2 PWINO
Observed Flight Rules
May-24 @ 07:15 UTC
(23 minutes ago)
VFR
Wind Visibility
130° at 8 knots 10 miles
Clouds
  • Few at 7,500' AGL
  • Few at 8,500' AGL
Temperature Dewpoint
20°C / 68°F 17°C / 63°F
Humidity Altimeter Pressure
83% 29.9" Hg 1013 hPa